Wheelock, North Dakota
Current Conditions -  °F | °C
As of 2:55 PM on Tuesday 25 Nov 2014 (Local Time) from KD60 Reporting Station
Broken Clouds Broken Clouds  
Wind Chill: 20°   Ceiling: 700
Heat Index: 32°   Visibility: 9mi
Dew Point: 32°   Wind: 20mph
Humidity: 100%   Direction: 40°NE
Pressure: 29.71"   Gusts: 24mph
Location:  48.2909°N, 103.237°W
Report Text: KD60 252055Z AUTO 04017G21KT 9SM BKN007 BKN012 BKN035 00/00 A2971 RMK AO2 P0010
Loading
Personal Weather Stations






























Interactive Weather Map New forecast layout! Learn more

10-Day Weather Forecast

Advertisements
Track Severe Weather on mobile